Time;durP1;ratioP1;P1;durP2;ratioP2;P2;SDS_P1;SDS_P2;PMS_P1;PMS_P2;Temp;Humidity;BMP_temperature;BMP_pressure;BME280_temperature;BME280_humidity;BME280_pressure;Samples;Min_cycle;Max_cycle;Signal;HPM_P1;HPM_P2
2022/02/27 00:00:17;;;;;;;23.70;12.53;;;;;;;-2.07;100.00;103037.44;2010233;29;20036;-60
2022/02/27 00:01:19;;;;;;;29.77;12.17;;;;;;;-2.05;100.00;103026.38;2010872;29;20029;-59
2022/02/27 00:02:19;;;;;;;22.95;11.82;;;;;;;-2.07;100.00;103027.19;2010847;29;20480;-59
2022/02/27 00:03:20;;;;;;;26.97;12.17;;;;;;;-2.02;100.00;103034.22;2010929;29;20116;-60
2022/02/27 00:04:20;;;;;;;26.93;14.07;;;;;;;-2.03;100.00;103027.31;2010243;29;20036;-59
2022/02/27 00:05:20;;;;;;;22.23;11.00;;;;;;;-2.05;100.00;103028.94;2010218;29;20057;-60
2022/02/27 00:06:21;;;;;;;20.50;12.73;;;;;;;-2.05;100.00;103029.84;2010804;29;20057;-59
2022/02/27 00:07:21;;;;;;;20.43;11.83;;;;;;;-2.12;100.00;103028.66;2010864;29;20030;-60
2022/02/27 00:08:21;;;;;;;20.80;10.57;;;;;;;-2.16;100.00;103026.75;2010891;29;20036;-60
2022/02/27 00:09:21;;;;;;;22.20;12.33;;;;;;;-2.16;100.00;103028.47;2010815;29;20029;-60
2022/02/27 00:10:22;;;;;;;21.53;11.00;;;;;;;-2.15;100.00;103032.75;2010838;29;20056;-59
2022/02/27 00:11:22;;;;;;;23.25;12.55;;;;;;;-2.14;100.00;103027.72;2010893;29;20032;-60
2022/02/27 00:12:22;;;;;;;23.43;10.67;;;;;;;-2.14;100.00;103029.41;2010831;29;20472;-59
2022/02/27 00:13:22;;;;;;;20.60;11.80;;;;;;;-2.14;100.00;103034.50;2017828;29;20096;-60
2022/02/27 00:14:23;;;;;;;25.57;12.10;;;;;;;-2.13;100.00;103032.03;2017937;29;20388;-60
2022/02/27 00:15:23;;;;;;;24.80;11.63;;;;;;;-2.12;100.00;103033.78;2010824;29;20049;-60
2022/02/27 00:16:23;;;;;;;17.67;10.87;;;;;;;-2.13;100.00;103023.47;2010762;29;19912;-60
2022/02/27 00:17:24;;;;;;;20.30;12.67;;;;;;;-2.18;100.00;103025.84;2010693;29;20484;-62
2022/02/27 00:18:24;;;;;;;25.30;10.43;;;;;;;-2.18;100.00;103023.28;2017717;29;20597;-60
2022/02/27 00:19:24;;;;;;;23.40;12.45;;;;;;;-2.18;100.00;103023.28;2017698;29;20032;-60
2022/02/27 00:20:24;;;;;;;;;;;;;;;-2.17;100.00;103024.13;2010524;29;20073;-60
2022/02/27 00:21:25;;;;;;;;;;;;;;;-2.18;100.00;103023.28;2010823;29;20051;-61
2022/02/27 00:22:25;;;;;;;;;;;;;;;-2.20;100.00;103024.88;2010891;29;20060;-59
2022/02/27 00:23:25;;;;;;;21.90;11.00;;;;;;;-2.25;100.00;103028.91;2010677;29;20063;-60
2022/02/27 00:24:25;;;;;;;;;;;;;;;-2.30;100.00;103022.72;2010667;29;20071;-59
2022/02/27 00:25:25;;;;;;;17.90;8.80;;;;;;;-2.29;100.00;103029.56;2010690;29;20051;-60
2022/02/27 00:26:26;;;;;;;24.33;11.50;;;;;;;-2.30;100.00;103027.81;2010669;29;20051;-59
2022/02/27 00:27:26;;;;;;;;;;;;;;;-2.28;100.00;103029.66;2010682;29;20147;-60
2022/02/27 00:28:26;;;;;;;;;;;;;;;-2.28;100.00;103021.97;2010426;29;24075;-60
2022/02/27 00:29:26;;;;;;;;;;;;;;;-2.28;100.00;103021.09;2010673;29;19912;-60
2022/02/27 00:30:27;;;;;;;21.80;9.70;;;;;;;-2.28;100.00;103021.09;2010697;29;19916;-60
2022/02/27 00:31:27;;;;;;;18.50;10.70;;;;;;;-2.27;100.00;103017.72;2010637;29;20066;-59
2022/02/27 00:32:28;;;;;;;22.30;11.60;;;;;;;-2.30;100.00;103021.00;2010678;29;20037;-60
2022/02/27 00:33:28;;;;;;;19.90;10.47;;;;;;;-2.29;100.00;103021.91;2017648;29;20032;-60
2022/02/27 00:34:28;;;;;;;24.23;13.53;;;;;;;-2.33;100.00;103024.31;2017739;29;20035;-59
2022/02/27 00:35:28;;;;;;;22.47;10.57;;;;;;;-2.35;100.00;103025.03;2010687;29;20040;-59
2022/02/27 00:36:29;;;;;;;20.97;10.83;;;;;;;-2.35;100.00;103020.81;2010568;29;20025;-59
2022/02/27 00:37:29;;;;;;;19.67;10.30;;;;;;;-2.36;100.00;103021.59;2010538;29;20034;-60
2022/02/27 00:38:30;;;;;;;17.63;9.97;;;;;;;-2.34;100.00;103025.13;2010550;29;20048;-60
2022/02/27 00:39:30;;;;;;;22.60;11.20;;;;;;;-2.34;100.00;103017.44;2010656;29;20041;-59
2022/02/27 00:40:31;;;;;;;22.23;11.10;;;;;;;-2.33;100.00;103019.19;2010556;29;20020;-59
2022/02/27 00:41:32;;;;;;;22.45;9.75;;;;;;;-2.29;100.00;103024.47;2010495;29;20053;-60
2022/02/27 00:42:32;;;;;;;21.75;10.80;;;;;;;-2.23;100.00;103025.59;2010560;29;20415;-59
2022/02/27 00:43:32;;;;;;;25.40;11.87;;;;;;;-2.15;100.00;103022.53;2010593;29;20344;-60
2022/02/27 00:44:33;;;;;;;22.10;11.17;;;;;;;-2.13;100.00;103029.47;2010486;29;20093;-60
2022/02/27 00:45:33;;;;;;;21.60;9.20;;;;;;;-2.11;100.00;103030.44;2010471;29;20021;-60
2022/02/27 00:46:33;;;;;;;19.60;10.10;;;;;;;-2.12;100.00;103015.84;2010683;29;20044;-60
2022/02/27 00:47:34;;;;;;;19.70;10.50;;;;;;;-2.11;100.00;103020.19;2010577;29;20088;-60
2022/02/27 00:48:34;;;;;;;20.53;9.17;;;;;;;-2.12;100.00;103020.97;2010390;29;20056;-60
2022/02/27 00:49:34;;;;;;;18.27;9.80;;;;;;;-2.02;100.00;103018.84;2010498;29;20109;-59
2022/02/27 00:50:35;;;;;;;17.03;9.80;;;;;;;-1.93;100.00;103021.81;2010526;29;20032;-59
2022/02/27 00:51:35;;;;;;;;;;;;;;;-1.87;100.00;103019.53;2010571;29;20030;-59
2022/02/27 00:52:36;;;;;;;15.50;10.30;;;;;;;-1.90;100.00;103015.94;2010641;29;19912;-59
2022/02/27 00:53:36;;;;;;;21.70;9.90;;;;;;;-1.90;100.00;103019.41;2010399;29;20102;-60
2022/02/27 00:54:36;;;;;;;22.60;9.80;;;;;;;-1.88;100.00;103016.91;2010608;29;20250;-59
2022/02/27 00:55:36;;;;;;;;;;;;;;;-1.89;100.00;103015.16;2010499;29;20072;-59
2022/02/27 00:56:37;;;;;;;;;;;;;;;-1.85;100.00;103017.06;2010621;29;20108;-59
2022/02/27 00:57:37;;;;;;;24.50;10.40;;;;;;;-1.81;100.00;103017.25;2010559;29;20039;-59
2022/02/27 00:58:38;;;;;;;15.63;8.93;;;;;;;-1.81;100.00;103013.81;2010508;29;20008;-60
2022/02/27 00:59:38;;;;;;;18.27;9.15;;;;;;;-1.85;100.00;103014.50;2010518;29;20037;-60
2022/02/27 01:00:38;;;;;;;;;;;;;;;-1.89;100.00;103016.03;2010462;29;20498;-60
2022/02/27 01:01:38;;;;;;;;;;;;;;;-1.90;100.00;103014.28;2010526;29;20546;-60
2022/02/27 01:02:39;;;;;;;17.75;9.60;;;;;;;-1.89;100.00;103016.03;2010503;29;20039;-60
2022/02/27 01:03:39;;;;;;;16.20;8.40;;;;;;;-1.89;100.00;103021.16;2017509;29;20017;-60
2022/02/27 01:04:40;;;;;;;18.93;8.70;;;;;;;-1.88;100.00;103009.22;2017615;29;20025;-60
2022/02/27 01:05:40;;;;;;;18.20;8.70;;;;;;;-1.87;100.00;103013.53;2009974;29;20022;-60
2022/02/27 01:06:40;;;;;;;17.73;8.53;;;;;;;-1.87;100.00;103008.41;2011491;29;20078;-60
2022/02/27 01:07:40;;;;;;;19.10;8.20;;;;;;;-1.90;100.00;103015.94;2012061;29;20093;-60
2022/02/27 01:08:41;;;;;;;22.37;10.20;;;;;;;-1.81;100.00;103011.25;2012026;29;20022;-60
2022/02/27 01:09:41;;;;;;;20.50;8.17;;;;;;;-1.80;100.00;103018.13;2012073;29;20540;-60
2022/02/27 01:10:41;;;;;;;16.77;8.30;;;;;;;-1.82;100.00;103012.94;2012045;29;20021;-59
2022/02/27 01:11:41;;;;;;;20.33;8.70;;;;;;;-1.83;100.00;103012.88;2012001;29;20111;-59
2022/02/27 01:12:42;;;;;;;16.50;8.30;;;;;;;-1.92;100.00;103010.75;2012043;29;19912;-60
2022/02/27 01:13:42;;;;;;;21.77;8.97;;;;;;;-1.99;100.00;103009.63;2012029;29;20491;-60
2022/02/27 01:14:43;;;;;;;15.00;7.70;;;;;;;-2.04;100.00;103005.09;2011990;29;20506;-58
2022/02/27 01:15:43;;;;;;;17.70;9.23;;;;;;;-2.07;100.00;103011.84;2012006;29;20736;-60
2022/02/27 01:16:43;;;;;;;18.50;8.75;;;;;;;-2.10;100.00;103001.47;2012114;29;20025;-60
2022/02/27 01:17:43;;;;;;;;;;;;;;;-2.09;100.00;103003.22;2012033;29;20471;-60
2022/02/27 01:18:43;;;;;;;;;;;;;;;-2.09;100.00;103008.31;2012137;29;20471;-60
2022/02/27 01:19:43;;;;;;;;;;;;;;;-2.05;100.00;103003.34;2012069;29;20040;-60
2022/02/27 01:20:44;;;;;;;15.40;7.90;;;;;;;-2.07;100.00;103006.72;2011965;29;20020;-60
2022/02/27 01:21:44;;;;;;;19.60;7.80;;;;;;;-2.05;100.00;102998.25;2019000;29;20780;-60
2022/02/27 01:22:44;;;;;;;11.30;7.50;;;;;;;-2.08;100.00;102997.28;2019065;29;20141;-61
2022/02/27 01:23:47;;;;;;;21.90;9.80;;;;;;;-2.07;100.00;103004.16;2012034;29;20333;-60
2022/02/27 01:24:47;;;;;;;;;;;;;;;-2.13;100.00;103001.31;2011989;29;20368;-60
2022/02/27 01:25:47;;;;;;;12.20;7.70;;;;;;;-2.16;100.00;103001.19;2011257;29;20025;-60
2022/02/27 01:26:47;;;;;;;22.50;8.90;;;;;;;-2.17;100.00;103004.53;2011402;29;20307;-60
2022/02/27 01:27:47;;;;;;;16.77;7.97;;;;;;;-2.22;100.00;103004.31;2018910;29;20031;-60
2022/02/27 01:28:48;;;;;;;;;;;;;;;-2.26;100.00;103004.13;2019046;29;20440;-59
2022/02/27 01:29:48;;;;;;;;;;;;;;;-2.28;100.00;103006.63;2010841;29;25067;-60
2022/02/27 01:30:48;;;;;;;;;;;;;;;-2.26;100.00;103004.13;2011338;29;20239;-59
2022/02/27 01:31:48;;;;;;;10.90;6.20;;;;;;;-2.24;100.00;103002.50;2011921;29;20030;-59
2022/02/27 01:32:49;;;;;;;16.00;8.00;;;;;;;-2.21;100.00;103012.88;2011923;29;20052;-60
2022/02/27 01:33:49;;;;;;;12.30;7.90;;;;;;;-2.20;100.00;103012.06;2011931;29;19912;-59
2022/02/27 01:34:49;;;;;;;;;;;;;;;-2.20;100.00;103004.41;2012005;29;20269;-60
2022/02/27 01:35:50;;;;;;;;;;;;;;;-2.18;100.00;103007.91;2011991;29;20046;-60
2022/02/27 01:36:50;;;;;;;;;;;;;;;-2.17;100.00;103004.53;2011866;29;20458;-60
2022/02/27 01:37:50;;;;;;;;;;;;;;;-2.16;100.00;103006.28;2018842;29;24105;-60
2022/02/27 01:38:50;;;;;;;;;;;;;;;-2.16;100.00;103006.28;2018972;29;20100;-60
2022/02/27 01:39:50;;;;;;;14.80;7.25;;;;;;;-2.17;100.00;103009.66;2011910;29;20045;-60
2022/02/27 01:40:51;;;;;;;14.80;7.00;;;;;;;-2.24;100.00;103002.50;2011722;29;25169;-60
2022/02/27 01:41:51;;;;;;;20.80;8.40;;;;;;;-2.28;100.00;103001.50;2011789;29;20353;-60
2022/02/27 01:42:52;;;;;;;13.60;6.50;;;;;;;-2.28;100.00;102998.06;2011897;29;20116;-60
2022/02/27 01:43:52;;;;;;;17.90;8.70;;;;;;;-2.31;100.00;103000.47;2011860;29;20459;-60
2022/02/27 01:44:52;;;;;;;17.40;7.70;;;;;;;-2.35;100.00;103005.47;2011879;29;20109;-60
2022/02/27 01:45:53;;;;;;;14.70;6.97;;;;;;;-2.31;100.00;103001.34;2011850;29;19943;-60
2022/02/27 01:47:02;;;;;;;15.10;7.53;;;;;;;-2.35;100.00;102999.47;2011810;29;20108;-60
2022/02/27 01:48:03;;;;;;;13.68;6.05;;;;;;;-2.34;100.00;103002.09;2011638;29;20036;-59
2022/02/27 01:49:03;;;;;;;10.45;5.90;;;;;;;-2.34;100.00;102996.97;2011124;29;20507;-60
2022/02/27 01:50:05;;;;;;;14.90;7.40;;;;;;;-2.29;100.00;103001.44;2011193;29;20028;-60
2022/02/27 01:51:05;;;;;;;18.23;6.90;;;;;;;-2.25;100.00;103001.66;2011747;29;20044;-60
2022/02/27 01:52:07;;;;;;;17.47;7.03;;;;;;;-2.19;100.00;103001.03;2011723;29;20395;-60
2022/02/27 01:53:07;;;;;;;13.20;6.97;;;;;;;-2.16;100.00;103005.44;2011734;29;20034;-60
2022/02/27 01:54:07;;;;;;;15.00;8.03;;;;;;;-2.05;100.00;103008.47;2011741;29;20057;-60
2022/02/27 01:55:10;;;;;;;14.27;7.40;;;;;;;-1.95;100.00;103005.53;2011767;29;20030;-60
2022/02/27 01:56:12;;;;;;;12.65;7.03;;;;;;;-1.97;100.00;103002.91;2011757;29;20036;-60
2022/02/27 01:57:13;;;;;;;16.45;7.93;;;;;;;-2.08;100.00;102999.84;2011684;29;20502;-60
2022/02/27 01:58:13;;;;;;;16.80;6.70;;;;;;;-2.16;100.00;103001.19;2011767;29;20036;-60
2022/02/27 01:59:14;;;;;;;10.73;6.20;;;;;;;-2.17;100.00;102999.44;2011756;29;20289;-60
2022/02/27 02:00:15;;;;;;;10.75;6.45;;;;;;;-2.17;100.00;103004.53;2011637;29;20033;-60
2022/02/27 02:01:15;;;;;;;13.57;6.55;;;;;;;-2.18;100.00;103007.91;2011747;29;20052;-60
2022/02/27 02:02:16;;;;;;;14.30;7.17;;;;;;;-2.21;100.00;102997.53;2011681;29;20535;-59
2022/02/27 02:03:16;;;;;;;10.13;7.07;;;;;;;-2.23;100.00;102994.03;2011676;29;20376;-60
2022/02/27 02:04:16;;;;;;;15.87;7.53;;;;;;;-2.25;100.00;102995.66;2011704;29;20503;-60
2022/02/27 02:05:17;;;;;;;13.27;6.53;;;;;;;-2.26;100.00;102999.03;2011633;29;20037;-60
2022/02/27 02:06:17;;;;;;;19.20;7.87;;;;;;;-2.27;100.00;102999.81;2011550;29;20029;-60
2022/02/27 02:07:17;;;;;;;12.55;6.75;;;;;;;-2.25;100.00;102995.66;2011673;29;20059;-59
2022/02/27 02:08:18;;;;;;;14.37;6.60;;;;;;;-2.24;100.00;102998.28;2011675;29;20146;-60
2022/02/27 02:09:18;;;;;;;12.93;6.53;;;;;;;-2.22;100.00;103000.91;2011698;29;20018;-59
2022/02/27 02:10:19;;;;;;;17.23;6.87;;;;;;;-2.23;100.00;103001.69;2011617;29;20506;-59
2022/02/27 02:11:19;;;;;;;10.60;5.47;;;;;;;-2.28;100.00;103001.50;2011606;29;20056;-60
2022/02/27 02:12:19;;;;;;;14.75;6.50;;;;;;;-2.20;100.00;103006.97;2011688;29;19992;-60
2022/02/27 02:13:20;;;;;;;20.53;7.20;;;;;;;-2.10;100.00;103006.59;2011516;29;20583;-59
2022/02/27 02:14:20;;;;;;;21.00;7.70;;;;;;;-1.99;100.00;102998.53;2011611;29;20479;-60
2022/02/27 02:15:21;;;;;;;12.53;7.50;;;;;;;-1.87;100.00;103004.19;2011451;29;19981;-60
2022/02/27 02:16:21;;;;;;;18.58;7.07;;;;;;;-1.82;100.00;102997.56;2011606;29;20030;-60
2022/02/27 02:17:21;;;;;;;12.43;6.63;;;;;;;-1.85;100.00;102987.19;2010717;29;20021;-59
2022/02/27 02:18:21;;;;;;;;;;;;;;;-1.88;100.00;102997.28;2011252;29;20040;-61
2022/02/27 02:19:23;;;;;;;15.83;6.90;;;;;;;-1.98;100.00;102987.47;2011495;29;20056;-59
2022/02/27 02:20:24;;;;;;;12.85;6.72;;;;;;;-2.07;100.00;102995.59;2011447;29;20029;-59
2022/02/27 02:21:24;;;;;;;;;;;;;;;-2.15;100.00;102982.47;2018596;29;20484;-59
2022/02/27 02:22:24;;;;;;;10.27;6.20;;;;;;;-2.19;100.00;102988.22;2018634;29;19912;-60
2022/02/27 02:23:25;;;;;;;15.57;7.38;;;;;;;-2.23;100.00;102986.34;2011550;29;20503;-59
2022/02/27 02:24:25;;;;;;;15.87;6.60;;;;;;;-2.18;100.00;102990.00;2011482;29;20060;-60
2022/02/27 02:25:26;;;;;;;12.18;5.85;;;;;;;-2.18;100.00;102990.00;2011512;29;20488;-59
2022/02/27 02:26:26;;;;;;;;;;;;;;;-2.18;100.00;102995.13;2011546;29;20029;-59
2022/02/27 02:27:26;;;;;;;;;;;;;;;-2.26;100.00;102987.09;2011558;29;20134;-59
2022/02/27 02:28:27;;;;;;;;;;;;;;;-2.28;100.00;102992.94;2011571;29;20098;-59
2022/02/27 02:29:27;;;;;;;8.17;5.07;;;;;;;-2.33;100.00;102988.50;2011450;29;20242;-60
2022/02/27 02:30:27;;;;;;;10.30;5.63;;;;;;;-2.33;100.00;102988.50;2018383;29;20450;-60
2022/02/27 02:31:28;;;;;;;11.77;6.07;;;;;;;-2.34;100.00;102993.53;2018565;29;20112;-59
2022/02/27 02:32:28;;;;;;;15.70;6.05;;;;;;;-2.39;100.00;102995.00;2011565;29;20096;-59
2022/02/27 02:33:34;;;;;;;11.87;5.53;;;;;;;-2.43;100.00;102993.97;2011410;29;20032;-59
2022/02/27 02:34:34;;;;;;;14.02;5.68;;;;;;;-2.43;100.00;102996.53;2011375;29;20033;-59
2022/02/27 02:35:34;;;;;;;11.20;5.40;;;;;;;-2.48;100.00;102990.34;2011349;29;20022;-60
2022/02/27 02:36:35;;;;;;;11.13;6.00;;;;;;;-2.48;100.00;102985.22;2011340;29;20037;-59
2022/02/27 02:37:35;;;;;;;14.00;5.75;;;;;;;-2.52;100.00;102986.78;2011310;29;20134;-59
2022/02/27 02:38:35;;;;;;;10.07;5.60;;;;;;;-2.54;100.00;102982.41;2011359;29;20024;-59
2022/02/27 02:39:36;;;;;;;13.13;5.80;;;;;;;-2.56;100.00;102978.88;2011316;29;20021;-59
2022/02/27 02:40:36;;;;;;;14.33;5.77;;;;;;;-2.60;100.00;102983.84;2011270;29;20034;-60
2022/02/27 02:41:37;;;;;;;16.23;4.60;;;;;;;-2.64;100.00;102976.84;2011416;29;20357;-59
2022/02/27 02:42:42;;;;;;;11.57;6.33;;;;;;;-2.66;100.00;102981.03;2011240;29;20038;-60
2022/02/27 02:43:46;;;;;;;8.55;5.38;;;;;;;-2.68;100.00;102977.50;2011369;29;20293;-59
2022/02/27 02:44:49;;;;;;;11.20;5.78;;;;;;;-2.72;100.00;102978.16;2011345;29;20029;-59
2022/02/27 02:45:50;;;;;;;12.95;5.90;;;;;;;-2.74;100.00;102975.53;2011384;29;20025;-60
2022/02/27 02:46:51;;;;;;;8.43;5.28;;;;;;;-2.73;100.00;102976.41;2010725;29;20029;-60
2022/02/27 02:47:51;;;;;;;14.97;6.30;;;;;;;-2.73;100.00;102976.41;2010614;29;20036;-60
2022/02/27 02:48:51;;;;;;;12.20;5.90;;;;;;;-2.73;100.00;102976.41;2011310;29;20476;-60
2022/02/27 02:49:52;;;;;;;11.63;5.37;;;;;;;-2.76;100.00;102966.03;2011358;29;20033;-60
2022/02/27 02:50:52;;;;;;;8.80;4.83;;;;;;;-2.77;100.00;102971.97;2011365;29;20466;-60
2022/02/27 02:51:53;;;;;;;13.07;6.40;;;;;;;-2.79;100.00;102965.88;2011310;29;20484;-59
2022/02/27 02:52:54;;;;;;;9.70;5.43;;;;;;;-2.80;100.00;102966.69;2011364;29;20045;-59
2022/02/27 02:53:55;;;;;;;10.65;5.45;;;;;;;-2.80;100.00;102974.38;2018316;29;20073;-60
2022/02/27 02:54:55;;;;;;;14.97;6.60;;;;;;;-2.79;100.00;102963.34;2018402;29;20471;-60
2022/02/27 02:55:55;;;;;;;11.57;5.30;;;;;;;-2.79;100.00;102968.44;2011323;29;20059;-59
2022/02/27 02:56:55;;;;;;;10.37;6.37;;;;;;;-2.79;100.00;102971.88;2011355;29;20033;-60
2022/02/27 02:57:56;;;;;;;9.67;4.67;;;;;;;-2.75;100.00;102965.22;2018408;29;20029;-59
2022/02/27 02:58:56;;;;;;;8.33;4.73;;;;;;;-2.73;100.00;102971.31;2010701;29;20574;-59
2022/02/27 02:59:56;;;;;;;10.37;5.63;;;;;;;-2.71;100.00;102969.69;2010622;29;20113;-59
2022/02/27 03:00:56;;;;;;;10.97;5.80;;;;;;;-2.70;100.00;102966.34;2011252;29;20029;-60
2022/02/27 03:01:57;;;;;;;14.03;5.77;;;;;;;-2.70;100.00;102961.22;2011267;29;20029;-59
2022/02/27 03:02:57;;;;;;;9.00;5.17;;;;;;;-2.70;100.00;102965.44;2011334;29;20030;-59
2022/02/27 03:03:58;;;;;;;7.13;4.57;;;;;;;-2.69;100.00;102962.09;2011295;29;20230;-59
2022/02/27 03:04:58;;;;;;;11.30;5.38;;;;;;;-2.61;100.00;102966.75;2011285;29;20040;-59
2022/02/27 03:05:59;;;;;;;10.23;5.40;;;;;;;-2.49;100.00;102963.03;2018331;29;20037;-59
2022/02/27 03:06:59;;;;;;;17.53;8.63;;;;;;;-2.36;100.00;102964.47;2018346;29;20033;-59
2022/02/27 03:07:59;;;;;;;11.57;6.10;;;;;;;-2.20;100.00;102963.47;2011310;29;20113;-59
2022/02/27 03:08:59;;;;;;;15.17;5.90;;;;;;;-2.15;100.00;102967.13;2011234;29;20025;-59
2022/02/27 03:10:00;;;;;;;9.27;5.33;;;;;;;-2.15;100.00;102962.00;2011273;29;20021;-59
2022/02/27 03:11:00;;;;;;;14.80;6.83;;;;;;;-2.13;100.00;102960.38;2011259;29;20108;-59
2022/02/27 03:12:03;;;;;;;14.90;6.00;;;;;;;-2.12;100.00;102967.25;2010558;29;20061;-59
2022/02/27 03:13:04;;;;;;;14.73;6.65;;;;;;;-2.03;100.00;102971.00;2010590;29;20035;-59
2022/02/27 03:14:04;;;;;;;10.73;6.17;;;;;;;-2.01;100.00;102970.31;2011214;29;20472;-59
2022/02/27 03:15:06;;;;;;;11.23;5.90;;;;;;;-2.01;100.00;102964.28;2011223;29;20391;-59
2022/02/27 03:16:07;;;;;;;12.43;5.95;;;;;;;-2.05;100.00;102959.84;2018151;29;20052;-59
2022/02/27 03:17:07;;;;;;;8.60;4.43;;;;;;;-2.13;100.00;102962.94;2018273;29;20036;-59
2022/02/27 03:18:08;;;;;;;11.80;5.55;;;;;;;-2.13;100.00;102964.63;2011099;29;20492;-59
2022/02/27 03:19:08;;;;;;;11.30;5.47;;;;;;;-2.10;100.00;102965.66;2011088;29;20331;-59
2022/02/27 03:20:09;;;;;;;12.53;4.77;;;;;;;-2.12;100.00;102961.28;2011114;29;20029;-59
2022/02/27 03:21:09;;;;;;;10.77;4.75;;;;;;;-2.14;100.00;102957.75;2011108;29;20065;-59
2022/02/27 03:22:09;;;;;;;18.13;6.97;;;;;;;-2.14;100.00;102956.09;2011184;29;20040;-59
2022/02/27 03:23:10;;;;;;;13.73;4.97;;;;;;;-2.05;100.00;102962.41;2011132;29;20034;-59
2022/02/27 03:24:10;;;;;;;14.43;5.10;;;;;;;-1.97;100.00;102961.06;2011114;29;20298;-59
2022/02/27 03:25:10;;;;;;;8.70;5.90;;;;;;;-1.87;100.00;102960.66;2011102;29;20033;-59
2022/02/27 03:26:11;;;;;;;7.70;5.63;;;;;;;-1.84;100.00;102955.66;2011106;29;20033;-59
2022/02/27 03:27:11;;;;;;;12.07;5.70;;;;;;;-1.81;100.00;102952.38;2011118;29;20029;-59
2022/02/27 03:28:11;;;;;;;11.70;5.33;;;;;;;-1.81;100.00;102957.50;2011141;29;20060;-59
2022/02/27 03:29:12;;;;;;;15.37;5.60;;;;;;;-1.83;100.00;102956.53;2010917;29;20108;-59
2022/02/27 03:30:12;;;;;;;9.37;4.20;;;;;;;-1.94;100.00;102956.09;2018139;29;20040;-59
2022/02/27 03:31:12;;;;;;;12.47;5.73;;;;;;;-1.99;100.00;102952.47;2018199;29;20060;-59
2022/02/27 03:32:12;;;;;;;14.80;5.60;;;;;;;-2.03;100.00;102950.53;2011134;29;20058;-59
2022/02/27 03:33:13;;;;;;;9.40;4.50;;;;;;;-2.12;100.00;102949.34;2011036;29;20452;-59
2022/02/27 03:34:14;;;;;;;11.23;4.80;;;;;;;-2.15;100.00;102954.34;2011069;29;20116;-59
2022/02/27 03:35:16;;;;;;;11.63;5.63;;;;;;;-2.19;100.00;102947.31;2011048;29;20076;-59
2022/02/27 03:36:16;;;;;;;7.85;4.28;;;;;;;-2.24;100.00;102946.22;2011051;29;20032;-60
2022/02/27 03:37:16;;;;;;;10.33;4.27;;;;;;;-2.26;100.00;102955.53;2011065;29;20476;-60
2022/02/27 03:38:18;;;;;;;10.53;6.17;;;;;;;-2.28;100.00;102952.00;2011026;29;20036;-59
2022/02/27 03:39:18;;;;;;;7.65;4.05;;;;;;;-2.20;100.00;102953.22;2011052;29;20029;-59
2022/02/27 03:40:20;;;;;;;11.07;4.97;;;;;;;-2.23;100.00;102947.97;2011007;29;20033;-60
2022/02/27 03:41:20;;;;;;;8.00;4.80;;;;;;;-2.25;100.00;102947.03;2010350;29;20033;-60
2022/02/27 03:42:20;;;;;;;13.23;5.73;;;;;;;-2.28;100.00;102946.91;2010326;29;20036;-60
2022/02/27 03:43:20;;;;;;;7.13;4.53;;;;;;;-2.23;100.00;102956.53;2010905;29;20037;-59
2022/02/27 03:44:21;;;;;;;9.37;4.33;;;;;;;-2.21;100.00;102947.25;2010950;29;20029;-60
2022/02/27 03:45:21;;;;;;;12.83;5.07;;;;;;;-2.19;100.00;102944.75;2010843;29;20026;-60
2022/02/27 03:46:21;;;;;;;10.97;4.63;;;;;;;-2.24;100.00;102944.56;2010787;29;20100;-59
2022/02/27 03:47:21;;;;;;;9.10;4.33;;;;;;;-2.27;100.00;102946.09;2010939;29;20396;-59
2022/02/27 03:48:22;;;;;;;9.50;4.50;;;;;;;-2.35;100.00;102949.19;2010711;29;20054;-59
2022/02/27 03:49:22;;;;;;;8.67;5.27;;;;;;;-2.36;100.00;102946.56;2010898;29;20061;-60
2022/02/27 03:50:22;;;;;;;6.90;4.97;;;;;;;-2.40;100.00;102948.09;2010914;29;20057;-59
2022/02/27 03:51:23;;;;;;;7.17;3.90;;;;;;;-2.37;100.00;102944.78;2010878;29;20037;-59
2022/02/27 03:52:23;;;;;;;8.23;4.30;;;;;;;-2.34;100.00;102947.50;2010964;29;20074;-60
2022/02/27 03:53:23;;;;;;;5.67;3.63;;;;;;;-2.31;100.00;102944.19;2011053;29;20057;-61
2022/02/27 03:54:23;;;;;;;10.17;4.40;;;;;;;-2.35;100.00;102938.09;2010899;29;20037;-61
2022/02/27 03:55:24;;;;;;;10.17;4.60;;;;;;;-2.42;100.00;102938.59;2017935;29;20037;-61
2022/02/27 03:56:24;;;;;;;7.57;4.53;;;;;;;-2.49;100.00;102942.56;2010342;29;20029;-61
2022/02/27 03:57:24;;;;;;;9.90;4.97;;;;;;;-2.56;100.00;102943.09;2010610;29;20029;-61
2022/02/27 03:58:25;;;;;;;8.50;4.90;;;;;;;-2.62;100.00;102949.69;2010915;29;20029;-61
2022/02/27 03:59:25;;;;;;;7.67;4.07;;;;;;;-2.67;100.00;102943.44;2010926;29;20461;-60
2022/02/27 04:00:26;;;;;;;9.47;4.47;;;;;;;-2.69;100.00;102947.63;2010839;29;20033;-61
2022/02/27 04:01:26;;;;;;;7.47;4.68;;;;;;;-2.71;100.00;102946.66;2010841;29;20021;-60
2022/02/27 04:02:27;;;;;;;13.30;4.80;;;;;;;-2.73;100.00;102945.75;2010854;29;20036;-60
2022/02/27 04:03:27;;;;;;;9.17;3.93;;;;;;;-2.74;100.00;102947.41;2010835;29;20034;-59
2022/02/27 04:04:27;;;;;;;8.00;4.13;;;;;;;-2.70;100.00;102951.00;2010834;29;20033;-60
2022/02/27 04:05:28;;;;;;;7.27;4.03;;;;;;;-2.71;100.00;102941.56;2017862;29;20120;-59
2022/02/27 04:06:28;;;;;;;9.00;5.13;;;;;;;-2.73;100.00;102946.59;2017849;29;20036;-60
2022/02/27 04:07:28;;;;;;;16.80;5.63;;;;;;;-2.75;100.00;102943.13;2010751;29;20029;-59
2022/02/27 04:08:28;;;;;;;7.57;3.70;;;;;;;-2.76;100.00;102948.16;2010673;29;20029;-59
2022/02/27 04:09:29;;;;;;;7.90;3.50;;;;;;;-2.80;100.00;102943.69;2017788;29;20033;-59
2022/02/27 04:10:30;;;;;;;8.25;3.83;;;;;;;-2.83;100.00;102946.09;2017900;29;20032;-60
2022/02/27 04:11:31;;;;;;;6.38;4.32;;;;;;;-2.87;100.00;102942.53;2010813;29;20053;-60
2022/02/27 04:12:31;;;;;;;12.13;3.73;;;;;;;-2.91;100.00;102951.72;2010774;29;20034;-60
2022/02/27 04:13:32;;;;;;;10.00;4.27;;;;;;;-2.92;100.00;102959.31;2010814;29;20061;-60
2022/02/27 04:14:32;;;;;;;9.50;4.38;;;;;;;-2.96;100.00;102948.06;2010809;29;20017;-59
2022/02/27 04:15:32;;;;;;;7.07;4.13;;;;;;;-2.96;100.00;102955.75;2010768;29;20032;-59
2022/02/27 04:16:33;;;;;;;8.40;3.90;;;;;;;-3.01;100.00;102949.53;2010739;29;20057;-59
2022/02/27 04:17:33;;;;;;;7.63;4.43;;;;;;;-3.00;100.00;102941.06;2010778;29;20138;-60
2022/02/27 04:18:33;;;;;;;8.10;4.93;;;;;;;-2.99;100.00;102942.81;2010756;29;20025;-60
2022/02/27 04:19:34;;;;;;;7.47;4.13;;;;;;;-2.95;100.00;102948.97;2010678;29;20839;-60
2022/02/27 04:20:34;;;;;;;7.37;4.40;;;;;;;-2.99;100.00;102948.81;2010703;29;20029;-60
2022/02/27 04:21:34;;;;;;;10.33;4.10;;;;;;;-3.02;100.00;102942.66;2010759;29;20025;-60
2022/02/27 04:22:35;;;;;;;7.57;4.10;;;;;;;-3.06;100.00;102943.31;2010729;29;20033;-60
2022/02/27 04:23:35;;;;;;;8.53;4.50;;;;;;;-3.08;100.00;102942.38;2010657;29;20058;-59
2022/02/27 04:24:35;;;;;;;12.70;4.77;;;;;;;-3.12;100.00;102944.78;2010847;29;20390;-60
2022/02/27 04:25:35;;;;;;;9.23;4.73;;;;;;;-3.16;100.00;102939.44;2010754;29;20033;-60
2022/02/27 04:26:36;;;;;;;5.33;4.10;;;;;;;-3.16;100.00;102934.34;2010707;29;20029;-60
2022/02/27 04:27:36;;;;;;;8.67;4.13;;;;;;;-3.17;100.00;102940.25;2010742;29;20078;-60
2022/02/27 04:28:36;;;;;;;7.93;4.73;;;;;;;-3.19;100.00;102934.22;2010757;29;20112;-61
2022/02/27 04:29:36;;;;;;;7.00;3.37;;;;;;;-3.18;100.00;102935.94;2010723;29;20063;-60
2022/02/27 04:30:37;;;;;;;9.60;3.93;;;;;;;-3.19;100.00;102935.06;2010713;29;20025;-60
2022/02/27 04:31:37;;;;;;;15.00;4.53;;;;;;;-3.18;100.00;102934.25;2010704;29;20559;-59
2022/02/27 04:32:37;;;;;;;8.70;3.93;;;;;;;-3.18;100.00;102929.16;2017653;29;20116;-60
2022/02/27 04:33:38;;;;;;;10.70;5.43;;;;;;;-3.19;100.00;102932.50;2017826;29;20029;-60
2022/02/27 04:34:38;;;;;;;14.03;4.37;;;;;;;-3.21;100.00;102931.56;2010759;29;20029;-59
2022/02/27 04:35:38;;;;;;;10.77;5.40;;;;;;;-3.21;100.00;102936.69;2010617;29;20161;-59
2022/02/27 04:36:39;;;;;;;10.23;4.87;;;;;;;-3.24;100.00;102931.41;2010636;29;20109;-60
2022/02/27 04:37:39;;;;;;;6.53;4.25;;;;;;;-3.29;100.00;102931.19;2010602;29;20094;-59